ENXQ weather

CLOSED Frigg DP2 Platform
Norway

Public forecast

Using degrees Celsius for public forecast. Weather courtesy of forecast.io.

Closest aviation weather report (METAR) to Frigg DP2 Platform

Closest report is Oseberg A Platform, 42.8 nm (79.2 km) NNE. Retrieved 2019/10/20 05:20 UTC (0 seconds ago):

ENOA 200520Z 01022KT CAVOK 10/06 Q1006 W///S5

Closest aviation forecast (TAF) to Frigg DP2 Platform

Closest forecast is Oseberg A Platform, 42.8 nm (79.2 km) NNE. Retrieved 2019-10-20 03:57 UTC (1 hour ago):

TAF TAF ENOA 200200Z 2003/2103 04018KT 9999 FEW020 SCT050 BECMG 2009/2012 02028KT BECMG 2022/2024 35018KT